Vilanova de Sau





Hora UTC 17:30
Temperatura 3.8 ºC
Humedad 79.9 %
Presión 1028.3 hPa
Pluja 0.2 mm
Velocidad viento 0.1 km/h
Dirección viento SW
Radiación solar 0.0 W/m²
Fuel -180.4 %

Datos diarios 2022-01-25



Hora UTC (invierno +1h; verano +2h)
Temperatura (ºC) Humedad (%) Presión (hPa) Velocidad viento (km/h) Precipitación (mm) Fuel (%) Radiación solar (W/m²)
Hora UTC Aire Humedad Presión Vel. Dir. Vel. Max Dir. Intent. máx 5 min. Fuel Rad. Sol.
00:05 -1.2 97.7 1028.6 0.0 NNE 0.0 SW 0.0 -181.8 0.0
00:10 -1.4 97.6 1028.6 0.0 NNE 0.0 SW 0.0 -181.8 0.0
00:15 -1.4 97.9 1028.6 0.0 NNE 0.0 SW 0.0 -181.8 0.0
00:20 -1.4 97.9 1028.6 0.0 NNE 0.0 SW 0.0 -181.8 0.0
00:25 -1.5 97.9 1028.6 0.0 NNE 0.0 SW 0.0 -181.8 0.0
00:30 -1.5 97.9 1028.6 0.0 NNE 0.0 SW 0.0 -181.8 0.0
00:35 -1.6 97.9 1028.5 0.0 NNE 0.0 SW 0.0 -181.9 0.0
00:40 -1.7 97.9 1028.6 0.0 NNE 0.0 SW 0.0 -181.9 0.0
00:45 -1.7 98.1 1028.6 0.0 NNE 0.0 SW 0.0 -181.9 0.0
00:50 -1.7 98.1 1028.6 0.0 NNE 0.0 SW 0.0 -181.9 0.0
00:55 -1.7 98.0 1028.6 0.0 NNE 0.0 SW 0.0 -181.9 0.0
01:00 -1.8 98.0 1028.6 0.0 NNE 0.0 SW 0.0 -181.9 0.0
01:05 -1.8 98.1 1028.6 0.0 NNE 0.0 SW 0.0 -181.9 0.0
01:10 -1.8 98.2 1028.6 0.0 NNE 0.0 SW 0.0 -182.0 0.0
01:15 -1.9 98.1 1028.7 0.0 NNE 0.0 SW 0.0 -182.0 0.0
01:20 -2.0 98.1 1028.7 0.0 NNE 0.0 SW 0.0 -182.0 0.0
01:25 -2.1 98.1 1028.7 0.0 NNE 0.0 SW 0.0 -182.0 0.0
01:30 -2.0 98.3 1028.8 0.0 NNE 0.0 SW 0.0 -182.0 0.0
01:35 -1.9 98.5 1028.8 0.0 NNE 0.0 SW 0.0 -182.0 0.0
01:40 -2.0 98.3 1028.8 0.0 NNE 0.0 SW 0.0 -182.0 0.0
01:45 -2.1 98.4 1028.9 0.0 NNE 0.0 SW 0.0 -182.0 0.0
01:50 -1.9 98.5 1028.9 0.0 NNE 0.0 SW 0.0 -182.0 0.0
01:55 -1.8 98.5 1028.9 0.0 NNE 0.0 SW 0.0 -182.0 0.0
02:00 -2.0 98.3 1028.9 0.0 NNE 0.0 SW 0.0 -182.0 0.0
02:05 -2.0 98.4 1028.9 0.0 NNE 0.0 SW 0.0 -182.0 0.0
02:10 -2.0 98.5 1028.9 0.0 NNE 0.0 SW 0.0 -182.0 0.0
02:15 -2.0 98.4 1028.9 0.0 NNE 0.0 SW 0.0 -182.0 0.0
02:20 -2.0 98.5 1028.9 0.0 NNE 0.0 SW 0.0 -182.0 0.0
02:25 -2.2 98.3 1028.9 0.0 NNE 0.0 SW 0.0 -182.0 0.0
02:30 -2.3 98.4 1028.9 0.0 NNE 0.0 SW 0.0 -182.0 0.0
02:35 -2.3 98.4 1028.9 0.0 NNE 0.0 SW 0.0 -182.0 0.0
02:40 -2.3 98.6 1028.8 0.0 NNE 0.0 SW 0.0 -182.0 0.0
02:45 -2.3 98.5 1028.8 0.0 NNE 0.0 SW 0.0 -182.1 0.0
02:50 -2.4 98.5 1028.8 0.0 NNE 0.0 SW 0.0 -182.1 0.0
02:55 -2.4 98.5 1028.8 0.0 NNE 0.0 SW 0.0 -182.1 0.0
03:00 -2.5 98.4 1028.9 0.0 NNE 0.0 SW 0.0 -182.1 0.0
03:05 -2.5 98.6 1028.8 0.0 NNE 0.0 SW 0.0 -182.1 0.0
03:10 -2.5 98.6 1028.8 0.0 NNE 0.0 SW 0.0 -182.1 0.0
03:15 -2.4 98.7 1028.8 0.0 NNE 0.0 SW 0.0 -182.1 0.0
03:20 -2.5 98.5 1028.8 0.0 NNE 0.0 SW 0.0 -182.1 0.0
03:25 -2.6 98.4 1028.8 0.0 NNE 0.0 SW 0.0 -182.2 0.0
03:30 -2.5 98.7 1028.7 0.0 NNE 0.0 SW 0.0 -182.2 0.0
03:35 -2.5 98.6 1028.7 0.0 NNE 0.0 WSW 0.0 -182.2 0.0
03:40 -2.5 98.5 1028.7 0.0 NNE 0.0 WSW 0.0 -182.2 0.0
03:45 -2.6 98.4 1028.7 0.0 NNE 0.0 WSW 0.0 -182.2 0.0
03:50 -2.5 98.6 1028.7 0.0 NNE 0.0 WSW 0.0 -182.2 0.0
03:55 -2.5 98.6 1028.7 0.0 NNE 0.0 WSW 0.0 -182.2 0.0
04:00 -2.6 98.5 1028.8 0.0 NNE 0.0 WSW 0.0 -182.2 0.0
04:05 -2.7 98.5 1028.7 0.0 NNE 0.0 WSW 0.0 -182.2 0.0
04:10 -2.7 98.5 1028.7 0.0 NNE 0.0 WSW 0.0 -182.2 0.0
04:15 -2.8 98.5 1028.7 0.0 NNE 0.0 WSW 0.0 -182.2 0.0
04:20 -2.8 98.6 1028.6 0.0 NNE 0.0 WSW 0.0 -182.2 0.0
04:25 -2.9 98.5 1028.7 0.0 NNE 0.0 WSW 0.0 -182.2 0.0
04:30 -3.0 98.6 1028.7 0.0 NNE 0.0 WSW 0.0 -182.2 0.0
04:35 -3.0 98.6 1028.7 0.0 NNE 0.0 WSW 0.0 -182.2 0.0
04:40 -3.0 98.6 1028.7 0.0 NNE 0.0 WSW 0.0 -182.2 0.0
04:45 -3.1 98.5 1028.7 0.0 NNE 0.0 WSW 0.0 -182.2 0.0
04:50 -3.2 98.5 1028.8 0.0 NNE 0.0 WSW 0.0 -182.2 0.0
04:55 -3.3 98.5 1028.7 0.0 NNE 0.0 WSW 0.0 -182.3 0.0
05:00 -3.3 98.5 1028.7 0.0 NNE 0.0 WSW 0.0 -182.3 0.0
05:05 -3.4 98.5 1028.7 0.0 NNE 0.0 WSW 0.0 -182.3 0.0
05:10 -3.5 98.6 1028.7 0.0 NNE 0.0 WSW 0.0 -182.3 0.0
05:15 -3.4 98.6 1028.7 0.0 NNE 0.0 WSW 0.0 -182.3 0.0
05:20 -3.5 98.5 1028.7 0.0 NNE 0.0 WSW 0.0 -182.3 0.0
05:25 -3.6 98.4 1028.8 0.0 NNE 0.0 WSW 0.0 -182.3 0.0
05:30 -3.5 98.6 1028.8 0.0 NNE 0.0 WSW 0.0 -182.3 0.0
05:35 -3.4 98.6 1028.7 0.0 NNE 0.0 WSW 0.0 -182.4 0.0
05:40 -3.4 98.6 1028.8 0.0 NNE 0.0 WSW 0.0 -182.4 0.0
05:45 -3.4 98.4 1028.8 0.0 NNE 0.0 WSW 0.0 -182.4 0.0
05:50 -3.4 98.5 1028.8 0.0 NNE 0.0 WSW 0.0 -182.4 0.0
05:55 -3.3 98.5 1028.9 0.0 NNE 0.0 WSW 0.0 -182.4 0.0
06:00 -3.4 98.4 1028.9 0.0 NNE 0.0 WSW 0.0 -182.4 0.0
06:05 -3.5 98.3 1029.0 0.0 NNE 0.0 WSW 0.0 -182.4 0.0
06:10 -3.4 98.5 1029.0 0.0 NNE 0.0 WSW 0.0 -182.4 0.0
06:15 -3.4 98.5 1029.0 0.0 NNE 0.0 WSW 0.0 -182.4 0.0
06:20 -3.3 98.5 1029.0 0.0 NNE 0.0 WSW 0.0 -182.4 0.0
06:25 -3.3 98.4 1029.0 0.0 NNE 0.0 WSW 0.0 -182.4 0.0
06:30 -3.3 98.4 1029.1 0.0 NNE 0.0 WSW 0.0 -182.4 0.0
06:35 -3.3 98.4 1029.1 0.0 NNE 0.0 WSW 0.0 -182.4 0.0
06:40 -3.3 98.3 1029.1 0.0 NNE 0.0 WSW 0.0 -182.4 0.0
06:45 -3.3 98.3 1029.1 0.0 NNE 0.0 WSW 0.0 -182.5 0.0
06:50 -3.3 98.3 1029.2 0.0 NNE 0.0 WSW 0.0 -182.4 0.1
06:55 -3.3 98.4 1029.2 0.0 NNE 0.0 WSW 0.0 -182.4 0.5
07:00 -3.3 98.3 1029.2 0.0 NNE 0.0 WSW 0.0 -182.4 1.3
07:05 -3.4 98.2 1029.2 0.0 NNE 0.0 WSW 0.0 -182.4 2.4
07:10 -3.4 98.3 1029.3 0.0 NNE 0.0 WSW 0.0 -182.4 3.6
07:15 -3.4 98.3 1029.3 0.0 NNE 0.0 WSW 0.0 -182.4 5.1
07:20 -3.4 98.3 1029.4 0.0 NNE 0.0 WSW 0.0 -182.4 6.6
07:25 -3.5 98.2 1029.4 0.0 NNE 0.0 WSW 0.0 -182.4 8.4
07:30 -3.5 98.2 1029.4 0.0 NNE 0.0 WSW 0.0 -182.4 10.9
07:35 -3.4 98.3 1029.5 0.0 NNE 0.0 WSW 0.0 -182.3 38.0
07:40 -3.2 98.2 1029.4 0.0 NNE 0.0 WSW 0.0 -182.2 66.4
07:45 -2.8 97.8 1029.5 0.0 NNE 0.0 WSW 0.0 -181.9 79.0
07:50 -2.5 97.0 1029.6 0.0 NNE 0.0 WSW 0.0 -181.6 85.9
07:55 -2.3 96.5 1029.6 0.0 NNE 0.0 WSW 0.0 -181.4 88.3
08:00 -2.0 96.1 1029.6 0.0 NNE 0.0 WSW 0.0 -181.2 86.0
08:05 -1.6 96.3 1029.5 0.0 NNE 0.0 WSW 0.0 -181.1 71.0
08:10 -1.2 95.7 1029.5 0.0 NNE 0.0 WSW 0.0 -180.9 89.1
08:15 -0.8 95.7 1029.5 0.0 NNE 0.0 WSW 0.0 -180.7 124.7
08:20 -0.2 95.8 1029.6 0.0 NNE 0.0 WSW 0.0 -180.5 96.8
08:25 -0.1 95.5 1029.6 0.0 NNE 0.0 WSW 0.0 -180.4 75.7
08:30 -0.1 95.2 1029.5 0.0 NNE 0.0 ESE 0.0 -180.3 138.1
08:35 0.0 95.2 1029.5 0.0 NNE 0.0 ESE 0.0 -180.2 189.4
08:40 0.2 94.6 1029.6 0.0 NNE 0.0 E 0.0 -180.0 200.0
08:45 0.4 94.1 1029.6 0.0 NNE 0.0 E 0.0 -179.8 210.3
08:50 0.3 93.5 1029.6 0.0 NNE 0.0 E 0.0 -179.7 221.5
08:55 0.4 93.8 1029.6 0.0 NNE 0.0 ENE 0.0 -179.6 238.6
09:00 0.6 93.9 1029.6 1.0 ENE 3.4 ENE 0.0 -179.5 283.2
09:05 0.6 93.0 1029.6 1.8 E 6.1 ENE 0.0 -179.5 308.1
09:10 0.8 92.6 1029.7 0.4 E 3.4 ESE 0.0 -179.4 313.6
09:15 0.9 91.7 1029.7 0.1 E 3.4 E 0.0 -179.3 328.5
09:20 1.1 90.7 1029.6 0.1 E 3.4 E 0.0 -179.2 340.2
09:25 1.2 89.5 1029.7 1.8 ENE 6.1 ENE 0.0 -179.1 350.2
09:30 1.5 89.1 1029.7 0.1 NE 3.4 NE 0.0 -179.1 359.4
09:35 1.8 88.5 1029.7 0.7 ENE 3.4 NNE 0.1 -179.0 368.3
09:40 2.5 87.6 1029.7 0.0 NNE 0.0 E 0.0 -178.9 376.8
09:45 2.7 85.1 1029.7 3.3 E 6.1 E 0.0 -178.8 384.5
09:50 2.6 85.1 1029.7 1.9 ENE 6.1 E 0.0 -178.8 392.0
09:55 2.9 85.3 1029.7 1.2 ENE 3.4 ENE 0.0 -178.8 399.1
10:00 3.1 84.5 1029.7 3.6 ENE 6.1 ENE 0.1 -178.7 406.3
10:05 3.1 84.4 1029.7 3.9 E 6.1 E 0.0 -178.9 413.2
10:10 3.3 84.8 1029.8 3.7 E 6.1 ESE 0.0 -178.9 419.4
10:15 3.7 84.4 1029.7 2.6 ENE 6.1 ENE 0.0 -178.8 425.9
10:20 3.9 82.2 1029.7 4.3 E 6.1 ENE 0.0 -178.8 431.6
10:25 4.1 81.6 1029.7 3.9 ENE 6.1 ENE 0.0 -178.8 436.8
10:30 4.3 80.6 1029.6 4.0 E 6.1 E 0.0 -178.8 442.4
10:35 4.7 79.1 1029.6 2.8 E 6.1 ENE 0.0 -178.7 447.4
10:40 4.9 77.5 1029.6 3.4 ENE 6.1 E 0.0 -178.7 452.1
10:45 5.3 76.8 1029.5 2.8 E 6.1 E 0.0 -178.6 455.6
10:50 5.8 74.2 1029.4 2.7 ENE 6.1 E 0.0 -178.6 458.7
10:55 6.0 73.4 1029.4 4.7 ENE 8.8 E 0.0 -178.5 462.7
11:00 6.2 71.7 1029.4 4.5 E 8.8 E 0.0 -178.5 466.8
11:05 6.7 70.2 1029.4 2.4 ENE 6.1 ENE 0.0 -178.5 470.7
11:10 7.1 67.6 1029.4 4.8 ENE 8.8 ENE 0.0 -178.4 473.9
11:15 7.0 67.2 1029.3 4.9 ENE 8.8 ENE 0.0 -178.4 476.9
11:20 7.2 66.8 1029.2 4.5 ENE 6.1 E 0.0 -178.5 479.7
11:25 7.5 65.2 1029.2 3.5 ENE 6.1 NE 0.0 -178.5 482.1
11:30 7.7 63.6 1029.2 4.1 E 8.8 E 0.0 -178.5 484.0
11:35 8.0 62.7 1029.1 4.0 E 6.1 E 0.0 -178.5 485.7
11:40 8.3 60.6 1029.1 3.1 E 6.1 E 0.0 -178.5 486.9
11:45 8.7 58.9 1029.0 3.5 ENE 6.1 ESE 0.0 -178.5 486.6
11:50 9.0 56.4 1029.0 2.8 E 6.1 ENE 0.0 -178.5 486.4
11:55 9.5 55.6 1028.9 3.6 NE 6.1 ENE 0.0 -178.5 487.5
12:00 10.0 53.2 1028.9 3.9 NE 6.1 NE 0.0 -178.5 487.1
12:05 10.1 52.0 1028.8 2.4 E 6.1 E 0.0 -178.5 486.1
12:10 10.4 50.6 1028.7 3.8 ENE 6.1 NE 0.0 -178.6 484.4
12:15 10.7 50.1 1028.7 3.4 E 8.8 ENE 0.0 -178.6 482.9
12:20 10.8 49.5 1028.7 3.7 ENE 8.8 NE 0.0 -178.6 481.7
12:25 11.3 48.1 1028.6 3.3 ENE 8.8 E 0.0 -178.6 479.6
12:30 11.2 48.5 1028.6 6.1 E 11.5 E 0.0 -178.5 475.8
12:35 11.2 47.3 1028.5 5.6 ENE 11.5 E 0.0 -178.6 437.0
12:40 11.4 46.3 1028.5 4.9 ENE 8.8 E 0.0 -178.6 470.2
12:45 11.5 45.3 1028.4 5.9 ENE 8.8 E 0.0 -178.6 466.2
12:50 11.4 44.7 1028.3 5.9 E 8.8 ENE 0.0 -178.6 462.1
12:55 11.7 44.4 1028.3 3.9 ENE 8.8 ENE 0.0 -178.6 457.8
13:00 11.9 43.4 1028.2 5.0 ENE 8.8 ENE 0.0 -178.6 452.9
13:05 11.9 43.3 1028.1 3.7 ENE 8.8 ENE 0.0 -178.6 447.5
13:10 12.2 42.5 1028.1 4.8 ENE 8.8 ENE 0.0 -178.5 442.0
13:15 12.2 42.2 1028.1 3.9 ESE 8.8 ENE 0.0 -178.5 436.8
13:20 12.4 42.4 1028.0 4.4 ENE 8.8 ENE 0.0 -178.5 430.0
13:25 12.6 42.1 1028.0 4.3 NE 8.8 NE 0.0 -178.5 424.2
13:30 12.6 41.8 1027.9 5.1 ENE 8.8 NE 0.0 -178.4 418.0
13:35 12.5 43.3 1027.8 3.1 E 8.8 ENE 0.0 -178.4 411.6
13:40 12.6 43.2 1027.8 7.6 ENE 14.2 E 0.0 -178.4 404.3
13:45 12.5 42.5 1027.8 7.6 ENE 11.5 E 0.0 -178.4 396.5
13:50 12.6 42.7 1027.7 7.5 ENE 11.5 E 0.0 -178.5 388.0
13:55 12.9 41.1 1027.7 3.2 ENE 6.1 ENE 0.0 -178.5 379.6
14:00 13.4 39.4 1027.7 3.1 NNW 11.5 NNW 0.0 -178.4 372.3
14:05 13.7 39.6 1027.7 5.0 WSW 16.9 NNW 0.0 -178.4 363.9
14:10 13.5 37.1 1027.6 6.9 WSW 11.5 WSW 0.0 -178.4 355.0
14:15 13.6 37.2 1027.6 5.2 W 11.5 SW 0.0 -178.4 346.1
14:20 13.5 37.0 1027.6 6.3 WSW 11.5 WSW 0.0 -178.4 335.9
14:25 13.5 37.1 1027.6 6.7 W 11.5 W 0.0 -178.4 325.4
14:30 13.5 38.0 1027.7 5.0 SW 8.8 SSW 0.0 -178.4 314.9
14:35 13.7 37.8 1027.7 2.8 SW 8.8 SSW 0.0 -178.4 304.1
14:40 13.9 38.8 1027.7 2.1 W 8.8 NW 0.0 -178.3 293.3
14:45 13.8 39.7 1027.7 2.6 W 8.8 W 0.0 -178.3 281.9
14:50 13.6 40.8 1027.8 3.2 WNW 8.8 WNW 0.0 -178.3 271.0
14:55 13.5 41.4 1027.7 1.6 W 8.8 WNW 0.0 -178.3 260.1
15:00 13.4 40.8 1027.7 5.0 WSW 11.5 SW 0.0 -178.3 249.3
15:05 13.3 41.9 1027.7 2.8 WSW 8.8 W 0.0 -178.3 237.9
15:10 13.3 41.3 1027.8 4.6 WNW 11.5 W 0.0 -178.3 226.0
15:15 12.9 44.5 1027.8 2.0 WSW 6.1 W 0.0 -178.3 213.9
15:20 12.5 43.8 1027.7 3.4 W 8.8 NNW 0.0 -178.3 202.1
15:25 12.3 46.0 1027.7 2.4 WSW 8.8 W 0.0 -178.4 190.1
15:30 11.2 52.7 1027.7 1.7 W 6.1 W 0.0 -178.4 177.6
15:35 10.5 55.3 1027.7 2.6 WSW 6.1 WSW 0.0 -178.5 165.2
15:40 10.2 56.2 1027.7 2.9 W 8.8 WSW 0.0 -178.5 125.8
15:45 9.5 58.6 1027.7 2.5 WSW 6.1 WSW 0.0 -178.7 25.1
15:50 8.5 62.1 1027.7 2.3 WSW 6.1 W 0.0 -178.8 21.7
15:55 7.9 63.9 1027.7 2.9 WSW 8.8 WSW 0.0 -179.0 21.0
16:00 7.4 66.1 1027.8 0.5 W 6.1 W 0.0 -179.2 20.4
16:05 6.8 68.3 1027.8 1.0 WSW 6.1 WSW 0.0 -179.4 19.4
16:10 6.7 67.7 1027.8 1.4 WSW 3.4 WSW 0.0 -179.5 18.2
16:15 6.4 68.7 1027.8 2.5 WSW 6.1 WSW 0.0 -179.6 17.0
16:20 6.1 70.3 1027.8 2.5 WSW 6.1 WSW 0.0 -179.7 15.7
16:25 5.9 70.5 1027.8 3.0 WSW 6.1 SW 0.0 -179.8 14.4
16:30 5.9 69.8 1027.9 2.5 WSW 6.1 WSW 0.0 -179.9 13.0
16:35 5.6 71.3 1027.9 2.8 WSW 6.1 SW 0.0 -179.9 11.4
16:40 5.5 70.9 1027.9 2.5 WSW 6.1 WSW 0.0 -180.0 9.8
16:45 5.4 72.0 1027.9 2.9 WSW 6.1 WSW 0.0 -180.0 8.0
16:50 5.1 73.5 1028.0 3.6 WSW 6.1 WSW 0.0 -180.1 6.3
16:55 4.8 74.8 1028.0 3.3 WSW 6.1 WSW 0.0 -180.1 4.4
17:00 4.7 75.0 1028.1 3.5 WSW 6.1 WSW 0.0 -180.2 2.8
17:05 4.7 75.1 1028.1 3.4 WSW 6.1 WSW 0.0 -180.2 1.5
17:10 4.5 75.8 1028.2 3.2 WSW 6.1 WSW 0.0 -180.3 0.6
17:15 4.5 76.2 1028.2 1.4 WSW 3.4 WSW 0.0 -180.3 0.2
17:20 4.1 79.6 1028.3 0.6 SW 3.4 SW 0.0 -180.3 0.0
17:25 3.7 80.8 1028.3 2.0 SW 6.1 SW 0.0 -180.4 0.0
17:30 3.8 79.9 1028.3 0.1 SW 3.4 SW 0.0 -180.4 0.0
Máxima 14.1 98.7 1029.8 7.6 ENE 16.9 NNW 0.1 -178.3 487.5
Mínima -3.6 37.0 1027.6 -182.5
Total 0.2